sensor_id;sensor_type;location;lat;lon;timestamp;P1;durP1;ratioP1;P2;durP2;ratioP2
63259;SDS011;49390;51.380;0.098;2023-02-24T00:02:01;12.43;;;4.55;;
63259;SDS011;49390;51.380;0.098;2023-02-24T00:04:35;12.00;;;5.18;;
63259;SDS011;49390;51.380;0.098;2023-02-24T00:07:06;10.50;;;4.63;;
63259;SDS011;49390;51.380;0.098;2023-02-24T00:09:36;9.70;;;5.10;;
63259;SDS011;49390;51.380;0.098;2023-02-24T00:12:06;10.05;;;4.63;;
63259;SDS011;49390;51.380;0.098;2023-02-24T00:14:37;16.30;;;6.00;;
63259;SDS011;49390;51.380;0.098;2023-02-24T00:17:06;11.63;;;5.13;;
63259;SDS011;49390;51.380;0.098;2023-02-24T00:19:35;13.38;;;5.53;;
63259;SDS011;49390;51.380;0.098;2023-02-24T00:22:05;15.55;;;5.30;;
63259;SDS011;49390;51.380;0.098;2023-02-24T00:24:34;14.77;;;4.57;;
63259;SDS011;49390;51.380;0.098;2023-02-24T00:27:03;11.20;;;5.10;;
63259;SDS011;49390;51.380;0.098;2023-02-24T00:29:38;11.25;;;4.72;;
63259;SDS011;49390;51.380;0.098;2023-02-24T00:32:08;12.48;;;4.85;;
63259;SDS011;49390;51.380;0.098;2023-02-24T00:34:40;11.88;;;4.45;;
63259;SDS011;49390;51.380;0.098;2023-02-24T00:39:43;13.43;;;4.90;;
63259;SDS011;49390;51.380;0.098;2023-02-24T00:42:11;11.70;;;4.80;;
63259;SDS011;49390;51.380;0.098;2023-02-24T00:44:40;14.80;;;5.05;;
63259;SDS011;49390;51.380;0.098;2023-02-24T00:47:12;14.10;;;5.13;;
63259;SDS011;49390;51.380;0.098;2023-02-24T00:49:40;16.23;;;5.72;;
63259;SDS011;49390;51.380;0.098;2023-02-24T00:52:13;13.90;;;5.50;;
63259;SDS011;49390;51.380;0.098;2023-02-24T00:54:45;12.80;;;4.95;;
63259;SDS011;49390;51.380;0.098;2023-02-24T00:57:15;13.77;;;5.85;;
63259;SDS011;49390;51.380;0.098;2023-02-24T00:59:44;11.75;;;4.78;;
63259;SDS011;49390;51.380;0.098;2023-02-24T01:02:14;11.90;;;5.40;;
63259;SDS011;49390;51.380;0.098;2023-02-24T01:04:45;12.05;;;5.22;;
63259;SDS011;49390;51.380;0.098;2023-02-24T01:07:13;10.75;;;5.18;;
63259;SDS011;49390;51.380;0.098;2023-02-24T01:09:44;15.63;;;5.60;;
63259;SDS011;49390;51.380;0.098;2023-02-24T01:12:12;8.52;;;4.65;;
63259;SDS011;49390;51.380;0.098;2023-02-24T01:15:10;12.95;;;5.22;;
63259;SDS011;49390;51.380;0.098;2023-02-24T01:17:39;16.17;;;5.38;;
63259;SDS011;49390;51.380;0.098;2023-02-24T01:20:12;12.27;;;5.45;;
63259;SDS011;49390;51.380;0.098;2023-02-24T01:22:45;12.93;;;5.45;;
63259;SDS011;49390;51.380;0.098;2023-02-24T01:25:16;12.55;;;5.63;;
63259;SDS011;49390;51.380;0.098;2023-02-24T01:27:46;17.58;;;5.57;;
63259;SDS011;49390;51.380;0.098;2023-02-24T01:30:15;20.15;;;5.43;;
63259;SDS011;49390;51.380;0.098;2023-02-24T01:32:45;18.42;;;5.75;;
63259;SDS011;49390;51.380;0.098;2023-02-24T01:35:14;13.27;;;4.55;;
63259;SDS011;49390;51.380;0.098;2023-02-24T01:37:42;12.65;;;5.63;;
63259;SDS011;49390;51.380;0.098;2023-02-24T01:40:12;18.75;;;5.20;;
63259;SDS011;49390;51.380;0.098;2023-02-24T01:42:48;13.00;;;4.95;;
63259;SDS011;49390;51.380;0.098;2023-02-24T01:45:20;13.65;;;5.00;;
63259;SDS011;49390;51.380;0.098;2023-02-24T01:47:51;11.32;;;5.05;;
63259;SDS011;49390;51.380;0.098;2023-02-24T01:50:22;10.88;;;4.93;;
63259;SDS011;49390;51.380;0.098;2023-02-24T01:52:54;14.13;;;5.10;;
63259;SDS011;49390;51.380;0.098;2023-02-24T01:55:32;15.95;;;5.88;;
63259;SDS011;49390;51.380;0.098;2023-02-24T01:58:15;12.23;;;5.15;;
63259;SDS011;49390;51.380;0.098;2023-02-24T02:00:54;13.85;;;5.47;;
63259;SDS011;49390;51.380;0.098;2023-02-24T02:03:28;15.20;;;5.82;;
63259;SDS011;49390;51.380;0.098;2023-02-24T02:05:59;11.68;;;4.65;;
63259;SDS011;49390;51.380;0.098;2023-02-24T02:08:29;10.83;;;5.40;;
63259;SDS011;49390;51.380;0.098;2023-02-24T02:11:03;17.00;;;5.60;;
63259;SDS011;49390;51.380;0.098;2023-02-24T02:13:39;12.57;;;4.82;;
63259;SDS011;49390;51.380;0.098;2023-02-24T02:18:47;11.45;;;4.78;;
63259;SDS011;49390;51.380;0.098;2023-02-24T02:21:37;16.60;;;5.68;;
63259;SDS011;49390;51.380;0.098;2023-02-24T02:24:17;14.13;;;5.47;;
63259;SDS011;49390;51.380;0.098;2023-02-24T02:30:10;14.88;;;5.47;;
63259;SDS011;49390;51.380;0.098;2023-02-24T02:36:05;14.75;;;5.90;;
63259;SDS011;49390;51.380;0.098;2023-02-24T02:38:54;12.82;;;5.05;;
63259;SDS011;49390;51.380;0.098;2023-02-24T02:41:44;16.52;;;5.40;;
63259;SDS011;49390;51.380;0.098;2023-02-24T02:50:07;20.35;;;5.75;;
63259;SDS011;49390;51.380;0.098;2023-02-24T02:52:50;11.70;;;5.32;;
63259;SDS011;49390;51.380;0.098;2023-02-24T02:55:48;18.52;;;5.82;;
63259;SDS011;49390;51.380;0.098;2023-02-24T02:58:25;15.88;;;5.75;;
63259;SDS011;49390;51.380;0.098;2023-02-24T03:00:57;13.63;;;5.65;;
63259;SDS011;49390;51.380;0.098;2023-02-24T03:03:36;16.27;;;5.97;;
63259;SDS011;49390;51.380;0.098;2023-02-24T03:06:09;11.98;;;4.80;;
63259;SDS011;49390;51.380;0.098;2023-02-24T03:09:27;13.75;;;5.60;;
63259;SDS011;49390;51.380;0.098;2023-02-24T03:11:42;12.32;;;4.47;;
63259;SDS011;49390;51.380;0.098;2023-02-24T03:14:21;22.08;;;6.35;;
63259;SDS011;49390;51.380;0.098;2023-02-24T03:16:53;14.73;;;4.68;;
63259;SDS011;49390;51.380;0.098;2023-02-24T03:19:25;10.93;;;5.20;;
63259;SDS011;49390;51.380;0.098;2023-02-24T03:22:20;19.83;;;5.85;;
63259;SDS011;49390;51.380;0.098;2023-02-24T03:25:24;11.30;;;5.90;;
63259;SDS011;49390;51.380;0.098;2023-02-24T03:28:00;13.07;;;5.72;;
63259;SDS011;49390;51.380;0.098;2023-02-24T03:30:51;17.92;;;5.40;;
63259;SDS011;49390;51.380;0.098;2023-02-24T03:33:32;11.90;;;5.10;;
63259;SDS011;49390;51.380;0.098;2023-02-24T03:36:04;14.50;;;5.30;;
63259;SDS011;49390;51.380;0.098;2023-02-24T03:38:33;13.32;;;4.90;;
63259;SDS011;49390;51.380;0.098;2023-02-24T03:41:05;14.32;;;5.70;;
63259;SDS011;49390;51.380;0.098;2023-02-24T03:43:39;17.83;;;5.65;;
63259;SDS011;49390;51.380;0.098;2023-02-24T03:46:15;13.02;;;4.93;;
63259;SDS011;49390;51.380;0.098;2023-02-24T03:48:46;16.70;;;5.18;;
63259;SDS011;49390;51.380;0.098;2023-02-24T03:51:22;13.90;;;4.93;;
63259;SDS011;49390;51.380;0.098;2023-02-24T03:54:13;12.82;;;5.07;;
63259;SDS011;49390;51.380;0.098;2023-02-24T03:57:36;15.05;;;4.60;;
63259;SDS011;49390;51.380;0.098;2023-02-24T04:00:06;18.10;;;4.93;;
63259;SDS011;49390;51.380;0.098;2023-02-24T04:03:00;14.02;;;4.78;;
63259;SDS011;49390;51.380;0.098;2023-02-24T04:05:32;14.80;;;5.55;;
63259;SDS011;49390;51.380;0.098;2023-02-24T04:08:14;12.02;;;5.10;;
63259;SDS011;49390;51.380;0.098;2023-02-24T04:13:30;13.00;;;5.65;;
63259;SDS011;49390;51.380;0.098;2023-02-24T04:16:23;16.05;;;5.68;;
63259;SDS011;49390;51.380;0.098;2023-02-24T04:18:57;13.70;;;5.30;;
63259;SDS011;49390;51.380;0.098;2023-02-24T04:21:36;13.27;;;5.30;;
63259;SDS011;49390;51.380;0.098;2023-02-24T04:24:06;15.03;;;5.33;;
63259;SDS011;49390;51.380;0.098;2023-02-24T04:26:43;14.80;;;4.95;;
63259;SDS011;49390;51.380;0.098;2023-02-24T04:29:15;11.23;;;4.47;;
63259;SDS011;49390;51.380;0.098;2023-02-24T04:31:50;13.20;;;5.03;;
63259;SDS011;49390;51.380;0.098;2023-02-24T04:34:23;11.55;;;5.20;;
63259;SDS011;49390;51.380;0.098;2023-02-24T04:36:51;13.00;;;5.22;;
63259;SDS011;49390;51.380;0.098;2023-02-24T04:39:20;16.25;;;5.65;;
63259;SDS011;49390;51.380;0.098;2023-02-24T04:41:53;14.20;;;5.20;;
63259;SDS011;49390;51.380;0.098;2023-02-24T04:44:21;15.25;;;5.10;;
63259;SDS011;49390;51.380;0.098;2023-02-24T04:46:49;14.65;;;5.40;;
63259;SDS011;49390;51.380;0.098;2023-02-24T04:49:18;11.57;;;5.15;;
63259;SDS011;49390;51.380;0.098;2023-02-24T04:51:46;11.90;;;5.03;;
63259;SDS011;49390;51.380;0.098;2023-02-24T04:54:15;10.73;;;5.07;;
63259;SDS011;49390;51.380;0.098;2023-02-24T04:56:44;13.63;;;4.93;;
63259;SDS011;49390;51.380;0.098;2023-02-24T04:59:14;14.38;;;5.13;;
63259;SDS011;49390;51.380;0.098;2023-02-24T05:01:44;15.45;;;5.28;;
63259;SDS011;49390;51.380;0.098;2023-02-24T05:04:13;15.25;;;5.97;;
63259;SDS011;49390;51.380;0.098;2023-02-24T05:06:41;10.75;;;5.13;;
63259;SDS011;49390;51.380;0.098;2023-02-24T05:09:14;18.60;;;5.65;;
63259;SDS011;49390;51.380;0.098;2023-02-24T05:11:45;17.83;;;5.75;;
63259;SDS011;49390;51.380;0.098;2023-02-24T05:14:18;15.52;;;5.47;;
63259;SDS011;49390;51.380;0.098;2023-02-24T05:16:51;16.17;;;5.05;;
63259;SDS011;49390;51.380;0.098;2023-02-24T05:19:19;19.23;;;5.57;;
63259;SDS011;49390;51.380;0.098;2023-02-24T05:22:06;15.35;;;5.28;;
63259;SDS011;49390;51.380;0.098;2023-02-24T05:24:37;12.60;;;5.28;;
63259;SDS011;49390;51.380;0.098;2023-02-24T05:27:07;15.77;;;5.78;;
63259;SDS011;49390;51.380;0.098;2023-02-24T05:29:36;12.82;;;5.18;;
63259;SDS011;49390;51.380;0.098;2023-02-24T05:32:04;14.00;;;4.93;;
63259;SDS011;49390;51.380;0.098;2023-02-24T05:34:32;13.45;;;4.80;;
63259;SDS011;49390;51.380;0.098;2023-02-24T05:37:01;11.20;;;4.55;;
63259;SDS011;49390;51.380;0.098;2023-02-24T05:39:36;16.17;;;5.18;;
63259;SDS011;49390;51.380;0.098;2023-02-24T05:42:04;12.43;;;6.18;;
63259;SDS011;49390;51.380;0.098;2023-02-24T05:44:33;13.75;;;5.07;;
63259;SDS011;49390;51.380;0.098;2023-02-24T05:47:02;16.30;;;5.82;;
63259;SDS011;49390;51.380;0.098;2023-02-24T05:49:33;12.93;;;4.80;;
63259;SDS011;49390;51.380;0.098;2023-02-24T05:52:05;14.27;;;4.60;;
63259;SDS011;49390;51.380;0.098;2023-02-24T05:54:39;15.82;;;4.72;;
63259;SDS011;49390;51.380;0.098;2023-02-24T05:57:09;15.20;;;5.07;;
63259;SDS011;49390;51.380;0.098;2023-02-24T05:59:39;11.70;;;4.38;;
63259;SDS011;49390;51.380;0.098;2023-02-24T06:02:09;12.82;;;4.70;;
63259;SDS011;49390;51.380;0.098;2023-02-24T06:04:43;14.10;;;4.85;;
63259;SDS011;49390;51.380;0.098;2023-02-24T06:07:24;11.13;;;4.28;;
63259;SDS011;49390;51.380;0.098;2023-02-24T06:09:55;10.80;;;4.75;;
63259;SDS011;49390;51.380;0.098;2023-02-24T06:12:26;11.05;;;4.47;;
63259;SDS011;49390;51.380;0.098;2023-02-24T06:14:56;14.15;;;5.07;;
63259;SDS011;49390;51.380;0.098;2023-02-24T06:17:24;12.48;;;4.43;;
63259;SDS011;49390;51.380;0.098;2023-02-24T06:19:54;13.00;;;4.40;;
63259;SDS011;49390;51.380;0.098;2023-02-24T06:22:22;14.10;;;4.88;;
63259;SDS011;49390;51.380;0.098;2023-02-24T06:24:52;11.93;;;4.65;;
63259;SDS011;49390;51.380;0.098;2023-02-24T06:27:21;9.48;;;4.97;;
63259;SDS011;49390;51.380;0.098;2023-02-24T06:29:52;13.25;;;4.65;;
63259;SDS011;49390;51.380;0.098;2023-02-24T06:32:22;13.18;;;6.05;;
63259;SDS011;49390;51.380;0.098;2023-02-24T06:37:20;9.48;;;4.45;;
63259;SDS011;49390;51.380;0.098;2023-02-24T06:39:51;17.83;;;5.40;;
63259;SDS011;49390;51.380;0.098;2023-02-24T06:42:19;12.13;;;4.93;;
63259;SDS011;49390;51.380;0.098;2023-02-24T06:44:47;20.67;;;5.65;;
63259;SDS011;49390;51.380;0.098;2023-02-24T06:47:19;12.88;;;5.20;;
63259;SDS011;49390;51.380;0.098;2023-02-24T06:49:49;12.60;;;4.57;;
63259;SDS011;49390;51.380;0.098;2023-02-24T06:52:17;13.50;;;4.63;;
63259;SDS011;49390;51.380;0.098;2023-02-24T06:54:48;12.88;;;4.00;;
63259;SDS011;49390;51.380;0.098;2023-02-24T06:57:19;14.95;;;4.63;;
63259;SDS011;49390;51.380;0.098;2023-02-24T06:59:50;15.55;;;4.55;;
63259;SDS011;49390;51.380;0.098;2023-02-24T07:02:18;12.07;;;4.60;;
63259;SDS011;49390;51.380;0.098;2023-02-24T07:04:46;13.32;;;4.40;;
63259;SDS011;49390;51.380;0.098;2023-02-24T07:07:14;11.02;;;4.60;;
63259;SDS011;49390;51.380;0.098;2023-02-24T07:09:44;12.30;;;4.15;;
63259;SDS011;49390;51.380;0.098;2023-02-24T07:12:11;7.53;;;3.85;;
63259;SDS011;49390;51.380;0.098;2023-02-24T07:14:42;10.70;;;4.40;;
63259;SDS011;49390;51.380;0.098;2023-02-24T07:17:10;9.80;;;4.30;;
63259;SDS011;49390;51.380;0.098;2023-02-24T07:19:41;8.50;;;4.18;;
63259;SDS011;49390;51.380;0.098;2023-02-24T07:22:10;10.30;;;4.20;;
63259;SDS011;49390;51.380;0.098;2023-02-24T07:24:41;14.13;;;4.32;;
63259;SDS011;49390;51.380;0.098;2023-02-24T07:27:14;10.57;;;4.07;;
63259;SDS011;49390;51.380;0.098;2023-02-24T07:29:49;8.60;;;3.80;;
63259;SDS011;49390;51.380;0.098;2023-02-24T07:32:20;8.45;;;3.70;;
63259;SDS011;49390;51.380;0.098;2023-02-24T07:34:49;10.35;;;3.75;;
63259;SDS011;49390;51.380;0.098;2023-02-24T07:37:16;10.90;;;4.05;;
63259;SDS011;49390;51.380;0.098;2023-02-24T07:39:46;9.20;;;3.80;;
63259;SDS011;49390;51.380;0.098;2023-02-24T07:42:14;6.90;;;3.70;;
63259;SDS011;49390;51.380;0.098;2023-02-24T07:44:43;10.95;;;4.05;;
63259;SDS011;49390;51.380;0.098;2023-02-24T07:47:13;13.60;;;4.50;;
63259;SDS011;49390;51.380;0.098;2023-02-24T07:49:42;14.65;;;4.60;;
63259;SDS011;49390;51.380;0.098;2023-02-24T07:52:11;10.35;;;4.13;;
63259;SDS011;49390;51.380;0.098;2023-02-24T07:54:39;15.30;;;4.22;;
63259;SDS011;49390;51.380;0.098;2023-02-24T07:57:07;10.15;;;3.80;;
63259;SDS011;49390;51.380;0.098;2023-02-24T07:59:40;10.90;;;3.97;;
63259;SDS011;49390;51.380;0.098;2023-02-24T08:02:11;8.63;;;4.13;;
63259;SDS011;49390;51.380;0.098;2023-02-24T08:04:40;9.50;;;3.95;;
63259;SDS011;49390;51.380;0.098;2023-02-24T08:07:17;10.25;;;4.05;;
63259;SDS011;49390;51.380;0.098;2023-02-24T08:09:54;8.23;;;3.65;;
63259;SDS011;49390;51.380;0.098;2023-02-24T08:12:51;9.15;;;3.95;;
63259;SDS011;49390;51.380;0.098;2023-02-24T08:15:22;9.57;;;3.78;;
63259;SDS011;49390;51.380;0.098;2023-02-24T08:17:56;10.55;;;4.18;;
63259;SDS011;49390;51.380;0.098;2023-02-24T08:20:27;10.50;;;4.32;;
63259;SDS011;49390;51.380;0.098;2023-02-24T08:23:02;11.40;;;4.35;;
63259;SDS011;49390;51.380;0.098;2023-02-24T08:25:32;8.07;;;3.80;;
63259;SDS011;49390;51.380;0.098;2023-02-24T08:28:04;13.07;;;4.30;;
63259;SDS011;49390;51.380;0.098;2023-02-24T08:30:37;15.95;;;5.03;;
63259;SDS011;49390;51.380;0.098;2023-02-24T08:33:18;17.52;;;4.82;;
63259;SDS011;49390;51.380;0.098;2023-02-24T08:35:52;9.80;;;4.22;;
63259;SDS011;49390;51.380;0.098;2023-02-24T08:38:29;11.70;;;4.35;;
63259;SDS011;49390;51.380;0.098;2023-02-24T08:41:10;10.07;;;4.07;;
63259;SDS011;49390;51.380;0.098;2023-02-24T08:43:44;10.98;;;4.43;;
63259;SDS011;49390;51.380;0.098;2023-02-24T08:46:16;7.70;;;3.90;;
63259;SDS011;49390;51.380;0.098;2023-02-24T08:48:53;7.63;;;3.80;;
63259;SDS011;49390;51.380;0.098;2023-02-24T08:51:28;10.95;;;4.10;;
63259;SDS011;49390;51.380;0.098;2023-02-24T08:54:05;8.52;;;4.50;;
63259;SDS011;49390;51.380;0.098;2023-02-24T08:56:38;15.65;;;4.70;;
63259;SDS011;49390;51.380;0.098;2023-02-24T08:59:26;9.27;;;4.05;;
63259;SDS011;49390;51.380;0.098;2023-02-24T09:02:15;8.10;;;3.83;;
63259;SDS011;49390;51.380;0.098;2023-02-24T09:04:53;10.63;;;4.22;;
63259;SDS011;49390;51.380;0.098;2023-02-24T09:07:23;10.27;;;4.13;;
63259;SDS011;49390;51.380;0.098;2023-02-24T09:09:57;8.13;;;3.90;;
63259;SDS011;49390;51.380;0.098;2023-02-24T09:12:26;12.02;;;4.10;;
63259;SDS011;49390;51.380;0.098;2023-02-24T09:14:56;9.63;;;4.70;;
63259;SDS011;49390;51.380;0.098;2023-02-24T09:17:29;9.82;;;4.38;;
63259;SDS011;49390;51.380;0.098;2023-02-24T09:20:25;12.27;;;4.30;;
63259;SDS011;49390;51.380;0.098;2023-02-24T09:23:28;13.10;;;5.00;;
63259;SDS011;49390;51.380;0.098;2023-02-24T09:25:56;11.48;;;4.40;;
63259;SDS011;49390;51.380;0.098;2023-02-24T09:28:25;10.38;;;4.03;;
63259;SDS011;49390;51.380;0.098;2023-02-24T09:30:56;12.90;;;4.93;;
63259;SDS011;49390;51.380;0.098;2023-02-24T09:38:57;14.75;;;4.18;;
63259;SDS011;49390;51.380;0.098;2023-02-24T09:41:33;11.43;;;4.63;;
63259;SDS011;49390;51.380;0.098;2023-02-24T09:50:05;20.48;;;7.10;;
63259;SDS011;49390;51.380;0.098;2023-02-24T09:53:04;12.20;;;4.85;;
63259;SDS011;49390;51.380;0.098;2023-02-24T09:55:51;12.32;;;4.60;;
63259;SDS011;49390;51.380;0.098;2023-02-24T10:06:48;11.43;;;4.80;;
63259;SDS011;49390;51.380;0.098;2023-02-24T10:11:52;11.77;;;5.20;;
63259;SDS011;49390;51.380;0.098;2023-02-24T10:14:35;14.90;;;4.90;;
63259;SDS011;49390;51.380;0.098;2023-02-24T10:17:19;11.50;;;4.82;;
63259;SDS011;49390;51.380;0.098;2023-02-24T10:19:56;10.10;;;5.00;;
63259;SDS011;49390;51.380;0.098;2023-02-24T10:22:46;12.10;;;4.93;;
63259;SDS011;49390;51.380;0.098;2023-02-24T10:28:24;9.63;;;4.50;;
63259;SDS011;49390;51.380;0.098;2023-02-24T10:31:07;13.65;;;5.25;;
63259;SDS011;49390;51.380;0.098;2023-02-24T10:33:55;7.75;;;4.40;;
63259;SDS011;49390;51.380;0.098;2023-02-24T10:36:36;11.80;;;5.00;;
63259;SDS011;49390;51.380;0.098;2023-02-24T10:39:12;15.63;;;5.70;;
63259;SDS011;49390;51.380;0.098;2023-02-24T10:41:50;11.27;;;5.60;;
63259;SDS011;49390;51.380;0.098;2023-02-24T10:44:28;9.25;;;4.82;;
63259;SDS011;49390;51.380;0.098;2023-02-24T10:47:06;11.20;;;5.07;;
63259;SDS011;49390;51.380;0.098;2023-02-24T10:49:39;10.45;;;5.10;;
63259;SDS011;49390;51.380;0.098;2023-02-24T10:55:28;14.35;;;5.32;;
63259;SDS011;49390;51.380;0.098;2023-02-24T11:01:24;10.13;;;5.20;;
63259;SDS011;49390;51.380;0.098;2023-02-24T11:04:17;9.90;;;4.97;;
63259;SDS011;49390;51.380;0.098;2023-02-24T11:07:12;11.90;;;5.10;;
63259;SDS011;49390;51.380;0.098;2023-02-24T11:12:53;10.43;;;4.70;;
63259;SDS011;49390;51.380;0.098;2023-02-24T11:15:45;11.55;;;5.43;;
63259;SDS011;49390;51.380;0.098;2023-02-24T11:18:34;16.55;;;6.68;;
63259;SDS011;49390;51.380;0.098;2023-02-24T11:21:03;12.48;;;5.80;;
63259;SDS011;49390;51.380;0.098;2023-02-24T11:42:15;14.70;;;6.13;;
63259;SDS011;49390;51.380;0.098;2023-02-24T11:44:53;11.88;;;6.53;;
63259;SDS011;49390;51.380;0.098;2023-02-24T11:47:28;10.88;;;5.53;;
63259;SDS011;49390;51.380;0.098;2023-02-24T11:50:27;14.90;;;6.70;;
63259;SDS011;49390;51.380;0.098;2023-02-24T11:52:57;14.20;;;6.82;;
63259;SDS011;49390;51.380;0.098;2023-02-24T11:58:12;16.20;;;6.28;;
63259;SDS011;49390;51.380;0.098;2023-02-24T12:00:51;12.63;;;6.65;;
63259;SDS011;49390;51.380;0.098;2023-02-24T12:06:29;13.40;;;6.25;;
63259;SDS011;49390;51.380;0.098;2023-02-24T12:09:09;16.02;;;6.35;;
63259;SDS011;49390;51.380;0.098;2023-02-24T12:11:44;11.90;;;6.45;;
63259;SDS011;49390;51.380;0.098;2023-02-24T12:14:29;12.88;;;6.57;;
63259;SDS011;49390;51.380;0.098;2023-02-24T12:17:11;14.82;;;7.47;;
63259;SDS011;49390;51.380;0.098;2023-02-24T12:19:59;14.85;;;6.90;;
63259;SDS011;49390;51.380;0.098;2023-02-24T12:23:16;14.57;;;7.20;;
63259;SDS011;49390;51.380;0.098;2023-02-24T12:37:21;14.40;;;7.38;;
63259;SDS011;49390;51.380;0.098;2023-02-24T12:40:13;15.82;;;7.70;;
63259;SDS011;49390;51.380;0.098;2023-02-24T12:46:05;12.75;;;6.18;;
63259;SDS011;49390;51.380;0.098;2023-02-24T13:00:08;12.23;;;5.75;;
63259;SDS011;49390;51.380;0.098;2023-02-24T13:11:02;11.93;;;5.70;;
63259;SDS011;49390;51.380;0.098;2023-02-24T13:13:51;18.98;;;6.53;;
63259;SDS011;49390;51.380;0.098;2023-02-24T13:16:47;11.38;;;4.55;;
63259;SDS011;49390;51.380;0.098;2023-02-24T13:19:19;14.32;;;5.15;;
63259;SDS011;49390;51.380;0.098;2023-02-24T13:24:32;14.30;;;5.82;;
63259;SDS011;49390;51.380;0.098;2023-02-24T13:29:56;13.13;;;5.57;;
63259;SDS011;49390;51.380;0.098;2023-02-24T13:35:03;13.27;;;5.93;;
63259;SDS011;49390;51.380;0.098;2023-02-24T13:39:50;13.38;;;5.72;;
63259;SDS011;49390;51.380;0.098;2023-02-24T13:44:47;16.50;;;5.88;;
63259;SDS011;49390;51.380;0.098;2023-02-24T13:50:17;11.85;;;5.50;;
63259;SDS011;49390;51.380;0.098;2023-02-24T14:01:22;9.10;;;4.10;;
63259;SDS011;49390;51.380;0.098;2023-02-24T14:04:03;7.97;;;4.18;;
63259;SDS011;49390;51.380;0.098;2023-02-24T14:06:31;8.43;;;3.40;;
63259;SDS011;49390;51.380;0.098;2023-02-24T14:09:00;8.10;;;3.60;;
63259;SDS011;49390;51.380;0.098;2023-02-24T14:11:31;10.93;;;3.72;;
63259;SDS011;49390;51.380;0.098;2023-02-24T14:14:02;11.13;;;3.70;;
63259;SDS011;49390;51.380;0.098;2023-02-24T14:16:34;10.10;;;4.00;;
63259;SDS011;49390;51.380;0.098;2023-02-24T14:19:11;10.60;;;4.13;;
63259;SDS011;49390;51.380;0.098;2023-02-24T14:21:47;8.43;;;3.50;;
63259;SDS011;49390;51.380;0.098;2023-02-24T14:24:20;13.35;;;4.55;;
63259;SDS011;49390;51.380;0.098;2023-02-24T14:26:55;12.13;;;4.55;;
63259;SDS011;49390;51.380;0.098;2023-02-24T14:29:28;10.63;;;4.13;;
63259;SDS011;49390;51.380;0.098;2023-02-24T14:32:19;8.88;;;4.07;;
63259;SDS011;49390;51.380;0.098;2023-02-24T14:34:49;13.23;;;4.15;;
63259;SDS011;49390;51.380;0.098;2023-02-24T14:37:28;9.48;;;4.03;;
63259;SDS011;49390;51.380;0.098;2023-02-24T14:39:58;8.50;;;3.60;;
63259;SDS011;49390;51.380;0.098;2023-02-24T14:42:26;11.93;;;4.35;;
63259;SDS011;49390;51.380;0.098;2023-02-24T14:44:56;12.63;;;4.38;;
63259;SDS011;49390;51.380;0.098;2023-02-24T14:47:26;15.65;;;4.00;;
63259;SDS011;49390;51.380;0.098;2023-02-24T14:52:25;9.43;;;3.70;;
63259;SDS011;49390;51.380;0.098;2023-02-24T14:55:07;8.18;;;3.55;;
63259;SDS011;49390;51.380;0.098;2023-02-24T15:00:55;8.48;;;3.83;;
63259;SDS011;49390;51.380;0.098;2023-02-24T15:03:28;10.55;;;3.75;;
63259;SDS011;49390;51.380;0.098;2023-02-24T15:06:04;6.43;;;3.40;;
63259;SDS011;49390;51.380;0.098;2023-02-24T15:08:35;9.93;;;4.05;;
63259;SDS011;49390;51.380;0.098;2023-02-24T15:13:50;9.98;;;3.60;;
63259;SDS011;49390;51.380;0.098;2023-02-24T15:16:22;15.80;;;4.13;;
63259;SDS011;49390;51.380;0.098;2023-02-24T15:18:58;10.32;;;3.60;;
63259;SDS011;49390;51.380;0.098;2023-02-24T15:21:29;17.15;;;4.00;;
63259;SDS011;49390;51.380;0.098;2023-02-24T15:23:58;11.38;;;3.78;;
63259;SDS011;49390;51.380;0.098;2023-02-24T15:26:31;12.02;;;3.85;;
63259;SDS011;49390;51.380;0.098;2023-02-24T15:29:10;9.07;;;3.17;;
63259;SDS011;49390;51.380;0.098;2023-02-24T15:31:45;8.18;;;3.70;;
63259;SDS011;49390;51.380;0.098;2023-02-24T15:34:21;7.00;;;3.13;;
63259;SDS011;49390;51.380;0.098;2023-02-24T15:36:55;11.05;;;3.20;;
63259;SDS011;49390;51.380;0.098;2023-02-24T15:39:30;12.80;;;3.42;;
63259;SDS011;49390;51.380;0.098;2023-02-24T15:42:06;14.18;;;3.28;;
63259;SDS011;49390;51.380;0.098;2023-02-24T15:44:56;9.73;;;3.30;;
63259;SDS011;49390;51.380;0.098;2023-02-24T15:47:26;8.02;;;3.33;;
63259;SDS011;49390;51.380;0.098;2023-02-24T15:49:56;9.05;;;3.17;;
63259;SDS011;49390;51.380;0.098;2023-02-24T15:52:26;7.03;;;3.03;;
63259;SDS011;49390;51.380;0.098;2023-02-24T15:54:55;7.85;;;3.15;;
63259;SDS011;49390;51.380;0.098;2023-02-24T15:57:25;11.90;;;3.10;;
63259;SDS011;49390;51.380;0.098;2023-02-24T15:59:56;15.57;;;3.83;;
63259;SDS011;49390;51.380;0.098;2023-02-24T16:02:24;9.18;;;3.80;;
63259;SDS011;49390;51.380;0.098;2023-02-24T16:04:54;8.57;;;3.25;;
63259;SDS011;49390;51.380;0.098;2023-02-24T16:07:27;8.93;;;3.45;;
63259;SDS011;49390;51.380;0.098;2023-02-24T16:09:58;7.55;;;2.90;;
63259;SDS011;49390;51.380;0.098;2023-02-24T16:12:29;10.93;;;2.78;;
63259;SDS011;49390;51.380;0.098;2023-02-24T16:15:02;12.50;;;3.05;;
63259;SDS011;49390;51.380;0.098;2023-02-24T16:22:31;10.48;;;3.15;;
63259;SDS011;49390;51.380;0.098;2023-02-24T16:24:59;9.90;;;2.70;;
63259;SDS011;49390;51.380;0.098;2023-02-24T16:27:27;9.60;;;2.78;;
63259;SDS011;49390;51.380;0.098;2023-02-24T16:29:57;7.07;;;2.75;;
63259;SDS011;49390;51.380;0.098;2023-02-24T16:32:26;10.20;;;3.00;;
63259;SDS011;49390;51.380;0.098;2023-02-24T16:34:54;7.65;;;3.03;;
63259;SDS011;49390;51.380;0.098;2023-02-24T16:37:26;9.45;;;2.70;;
63259;SDS011;49390;51.380;0.098;2023-02-24T16:39:55;10.18;;;3.45;;
63259;SDS011;49390;51.380;0.098;2023-02-24T16:42:25;12.70;;;3.45;;
63259;SDS011;49390;51.380;0.098;2023-02-24T16:44:53;10.27;;;2.90;;
63259;SDS011;49390;51.380;0.098;2023-02-24T16:47:22;7.90;;;3.10;;
63259;SDS011;49390;51.380;0.098;2023-02-24T16:49:51;9.55;;;3.08;;
63259;SDS011;49390;51.380;0.098;2023-02-24T16:52:24;7.88;;;2.80;;
63259;SDS011;49390;51.380;0.098;2023-02-24T16:54:52;8.52;;;3.15;;
63259;SDS011;49390;51.380;0.098;2023-02-24T16:57:19;7.75;;;3.08;;
63259;SDS011;49390;51.380;0.098;2023-02-24T16:59:52;9.88;;;3.35;;
63259;SDS011;49390;51.380;0.098;2023-02-24T17:02:21;6.60;;;2.45;;
63259;SDS011;49390;51.380;0.098;2023-02-24T17:04:51;7.85;;;2.45;;
63259;SDS011;49390;51.380;0.098;2023-02-24T17:07:20;8.63;;;2.72;;
63259;SDS011;49390;51.380;0.098;2023-02-24T17:09:50;8.80;;;3.03;;
63259;SDS011;49390;51.380;0.098;2023-02-24T17:12:19;8.10;;;2.53;;
63259;SDS011;49390;51.380;0.098;2023-02-24T17:14:48;9.07;;;3.15;;
63259;SDS011;49390;51.380;0.098;2023-02-24T17:17:16;8.45;;;3.28;;
63259;SDS011;49390;51.380;0.098;2023-02-24T17:19:44;10.52;;;2.70;;
63259;SDS011;49390;51.380;0.098;2023-02-24T17:22:12;10.00;;;2.90;;
63259;SDS011;49390;51.380;0.098;2023-02-24T17:24:40;7.55;;;2.53;;
63259;SDS011;49390;51.380;0.098;2023-02-24T17:27:09;9.00;;;2.83;;
63259;SDS011;49390;51.380;0.098;2023-02-24T17:29:38;11.55;;;3.47;;
63259;SDS011;49390;51.380;0.098;2023-02-24T17:32:06;10.15;;;2.95;;
63259;SDS011;49390;51.380;0.098;2023-02-24T17:34:34;9.70;;;3.10;;
63259;SDS011;49390;51.380;0.098;2023-02-24T17:37:02;11.38;;;3.42;;
63259;SDS011;49390;51.380;0.098;2023-02-24T17:39:30;12.52;;;4.13;;
63259;SDS011;49390;51.380;0.098;2023-02-24T17:41:58;12.15;;;3.30;;
63259;SDS011;49390;51.380;0.098;2023-02-24T17:44:28;16.10;;;4.53;;
63259;SDS011;49390;51.380;0.098;2023-02-24T17:46:56;8.13;;;2.97;;
63259;SDS011;49390;51.380;0.098;2023-02-24T17:49:24;8.73;;;2.95;;
63259;SDS011;49390;51.380;0.098;2023-02-24T17:51:52;9.02;;;3.10;;
63259;SDS011;49390;51.380;0.098;2023-02-24T17:54:20;8.15;;;3.92;;